sensor_id;sensor_type;location;lat;lon;timestamp;temperature;humidity
12374;DHT22;6251;51.762;8.660;2023-06-22T01:09:15;19.20;99.90
12374;DHT22;6251;51.762;8.660;2023-06-22T02:50:53;19.00;99.90
12374;DHT22;6251;51.762;8.660;2023-06-22T04:01:56;18.90;99.90
12374;DHT22;6251;51.762;8.660;2023-06-22T04:11:56;18.90;99.90
12374;DHT22;6251;51.762;8.660;2023-06-22T04:21:57;18.90;99.90
12374;DHT22;6251;51.762;8.660;2023-06-22T04:31:57;19.10;99.90
12374;DHT22;6251;51.762;8.660;2023-06-22T04:41:58;19.20;99.90
12374;DHT22;6251;51.762;8.660;2023-06-22T04:52:04;19.30;99.90
12374;DHT22;6251;51.762;8.660;2023-06-22T05:02:05;19.40;99.90
12374;DHT22;6251;51.762;8.660;2023-06-22T05:12:06;19.60;99.90
12374;DHT22;6251;51.762;8.660;2023-06-22T05:22:08;19.90;99.90
12374;DHT22;6251;51.762;8.660;2023-06-22T05:32:08;20.10;99.90
12374;DHT22;6251;51.762;8.660;2023-06-22T05:42:09;20.30;99.90
12374;DHT22;6251;51.762;8.660;2023-06-22T05:52:10;20.60;99.90
12374;DHT22;6251;51.762;8.660;2023-06-22T06:02:10;21.00;99.90
12374;DHT22;6251;51.762;8.660;2023-06-22T06:12:11;21.40;99.90
12374;DHT22;6251;51.762;8.660;2023-06-22T06:22:12;21.80;99.90
12374;DHT22;6251;51.762;8.660;2023-06-22T06:32:12;22.10;99.90
12374;DHT22;6251;51.762;8.660;2023-06-22T06:42:13;22.30;99.90
12374;DHT22;6251;51.762;8.660;2023-06-22T06:52:13;22.30;99.90
12374;DHT22;6251;51.762;8.660;2023-06-22T07:02:16;22.40;99.90
12374;DHT22;6251;51.762;8.660;2023-06-22T07:12:17;22.30;99.90
12374;DHT22;6251;51.762;8.660;2023-06-22T07:22:17;22.10;99.90
12374;DHT22;6251;51.762;8.660;2023-06-22T07:32:18;22.20;99.90
12374;DHT22;6251;51.762;8.660;2023-06-22T07:42:19;22.50;99.90
12374;DHT22;6251;51.762;8.660;2023-06-22T07:52:19;22.80;99.90
12374;DHT22;6251;51.762;8.660;2023-06-22T08:02:21;23.00;99.90
12374;DHT22;6251;51.762;8.660;2023-06-22T08:12:24;23.20;99.90
12374;DHT22;6251;51.762;8.660;2023-06-22T08:22:31;23.50;99.90
12374;DHT22;6251;51.762;8.660;2023-06-22T08:32:33;23.70;99.90
12374;DHT22;6251;51.762;8.660;2023-06-22T08:42:34;23.80;99.90
12374;DHT22;6251;51.762;8.660;2023-06-22T08:52:35;23.90;99.90
12374;DHT22;6251;51.762;8.660;2023-06-22T09:02:36;24.20;99.90
12374;DHT22;6251;51.762;8.660;2023-06-22T09:12:37;24.40;99.90
12374;DHT22;6251;51.762;8.660;2023-06-22T09:22:38;24.50;99.90
12374;DHT22;6251;51.762;8.660;2023-06-22T09:32:39;24.70;99.90
12374;DHT22;6251;51.762;8.660;2023-06-22T09:42:39;25.20;99.90
12374;DHT22;6251;51.762;8.660;2023-06-22T09:52:40;25.50;99.90
12374;DHT22;6251;51.762;8.660;2023-06-22T10:02:45;25.60;99.90
12374;DHT22;6251;51.762;8.660;2023-06-22T10:12:48;25.70;99.90
12374;DHT22;6251;51.762;8.660;2023-06-22T10:22:54;25.80;99.90
12374;DHT22;6251;51.762;8.660;2023-06-22T10:32:55;26.20;99.90
12374;DHT22;6251;51.762;8.660;2023-06-22T10:42:56;26.70;99.90
12374;DHT22;6251;51.762;8.660;2023-06-22T10:52:57;27.10;99.90
12374;DHT22;6251;51.762;8.660;2023-06-22T11:02:57;27.90;99.90
12374;DHT22;6251;51.762;8.660;2023-06-22T11:12:58;28.50;99.90
12374;DHT22;6251;51.762;8.660;2023-06-22T11:22:59;29.00;99.90
12374;DHT22;6251;51.762;8.660;2023-06-22T11:33:00;28.70;99.20
12374;DHT22;6251;51.762;8.660;2023-06-22T11:43:00;28.50;99.50
12374;DHT22;6251;51.762;8.660;2023-06-22T11:53:02;28.50;99.90
12374;DHT22;6251;51.762;8.660;2023-06-22T12:03:03;29.50;99.80
12374;DHT22;6251;51.762;8.660;2023-06-22T12:13:04;30.40;98.20
12374;DHT22;6251;51.762;8.660;2023-06-22T12:23:04;30.50;96.40
12374;DHT22;6251;51.762;8.660;2023-06-22T12:33:05;30.00;96.20
12374;DHT22;6251;51.762;8.660;2023-06-22T12:43:05;29.10;98.40
12374;DHT22;6251;51.762;8.660;2023-06-22T12:53:08;28.20;99.90
12374;DHT22;6251;51.762;8.660;2023-06-22T13:03:08;27.30;99.90
12374;DHT22;6251;51.762;8.660;2023-06-22T13:13:09;26.60;99.90
12374;DHT22;6251;51.762;8.660;2023-06-22T13:23:09;25.90;99.90
12374;DHT22;6251;51.762;8.660;2023-06-22T13:33:10;25.10;99.90
12374;DHT22;6251;51.762;8.660;2023-06-22T13:43:11;24.30;99.90
12374;DHT22;6251;51.762;8.660;2023-06-22T13:53:11;23.70;99.90
12374;DHT22;6251;51.762;8.660;2023-06-22T14:03:31;23.10;99.90
12374;DHT22;6251;51.762;8.660;2023-06-22T14:13:34;22.50;99.90
12374;DHT22;6251;51.762;8.660;2023-06-22T14:23:36;21.80;99.90
12374;DHT22;6251;51.762;8.660;2023-06-22T14:33:38;21.30;99.90
12374;DHT22;6251;51.762;8.660;2023-06-22T14:43:38;21.10;99.90
12374;DHT22;6251;51.762;8.660;2023-06-22T14:53:44;21.10;99.90
12374;DHT22;6251;51.762;8.660;2023-06-22T15:03:45;21.20;99.90
12374;DHT22;6251;51.762;8.660;2023-06-22T15:13:46;21.50;99.90
12374;DHT22;6251;51.762;8.660;2023-06-22T15:23:47;22.00;99.90
12374;DHT22;6251;51.762;8.660;2023-06-22T15:33:47;23.60;99.90
12374;DHT22;6251;51.762;8.660;2023-06-22T15:43:48;27.10;99.90
12374;DHT22;6251;51.762;8.660;2023-06-22T15:53:49;29.90;99.90
12374;DHT22;6251;51.762;8.660;2023-06-22T16:03:50;29.10;99.90
12374;DHT22;6251;51.762;8.660;2023-06-22T16:13:51;27.60;99.90
12374;DHT22;6251;51.762;8.660;2023-06-22T16:23:51;26.30;99.90
12374;DHT22;6251;51.762;8.660;2023-06-22T16:33:52;25.20;99.90
12374;DHT22;6251;51.762;8.660;2023-06-22T16:43:52;24.30;99.90
12374;DHT22;6251;51.762;8.660;2023-06-22T16:53:54;23.60;99.90
12374;DHT22;6251;51.762;8.660;2023-06-22T17:04:06;23.10;99.90
12374;DHT22;6251;51.762;8.660;2023-06-22T17:24:48;22.20;99.90
12374;DHT22;6251;51.762;8.660;2023-06-22T17:34:53;21.40;99.90
12374;DHT22;6251;51.762;8.660;2023-06-22T17:45:00;21.10;99.90
12374;DHT22;6251;51.762;8.660;2023-06-22T17:55:02;21.00;99.90
12374;DHT22;6251;51.762;8.660;2023-06-22T18:05:04;21.00;99.90
12374;DHT22;6251;51.762;8.660;2023-06-22T18:15:11;20.90;99.90
12374;DHT22;6251;51.762;8.660;2023-06-22T18:25:12;20.80;99.90
12374;DHT22;6251;51.762;8.660;2023-06-22T18:35:16;20.70;99.90
12374;DHT22;6251;51.762;8.660;2023-06-22T18:45:25;20.70;99.90
12374;DHT22;6251;51.762;8.660;2023-06-22T18:55:26;20.60;99.90
12374;DHT22;6251;51.762;8.660;2023-06-22T19:05:38;20.60;99.90
12374;DHT22;6251;51.762;8.660;2023-06-22T19:26:28;20.40;99.90
12374;DHT22;6251;51.762;8.660;2023-06-22T19:36:34;20.30;99.90
12374;DHT22;6251;51.762;8.660;2023-06-22T19:46:34;20.10;99.90
12374;DHT22;6251;51.762;8.660;2023-06-22T19:56:36;20.00;99.90
12374;DHT22;6251;51.762;8.660;2023-06-22T20:06:37;19.80;99.90
12374;DHT22;6251;51.762;8.660;2023-06-22T20:16:46;19.70;99.90
12374;DHT22;6251;51.762;8.660;2023-06-22T20:26:54;19.60;99.90
12374;DHT22;6251;51.762;8.660;2023-06-22T20:36:55;19.50;99.90
12374;DHT22;6251;51.762;8.660;2023-06-22T20:46:55;19.60;99.90
12374;DHT22;6251;51.762;8.660;2023-06-22T20:56:56;19.60;99.90
12374;DHT22;6251;51.762;8.660;2023-06-22T23:09:01;19.20;99.90
